createdAt,value
2023-03-17T00:00:47.057Z,98263.23
2023-03-17T00:03:25.968Z,98270.80
2023-03-17T00:05:55.327Z,98272.10
2023-03-17T00:08:31.060Z,98271.11
2023-03-17T00:11:00.336Z,98271.20
2023-03-17T00:13:31.259Z,98270.41
2023-03-17T00:16:02.125Z,98273.08
2023-03-17T00:18:31.805Z,98270.66
2023-03-17T00:21:00.774Z,98269.92
2023-03-17T00:23:29.952Z,98271.00
2023-03-17T00:25:58.819Z,98267.13
2023-03-17T00:28:27.826Z,98264.83
2023-03-17T00:31:01.056Z,98266.73
2023-03-17T00:33:33.460Z,98268.27
2023-03-17T00:36:02.015Z,98270.20
2023-03-17T00:38:31.428Z,98270.39
2023-03-17T00:41:01.529Z,98270.15
2023-03-17T00:43:30.768Z,98269.58
2023-03-17T00:45:58.875Z,98268.81
2023-03-17T00:48:29.892Z,98268.17
2023-03-17T00:50:58.402Z,98266.63
2023-03-17T00:53:30.100Z,98265.27
2023-03-17T00:56:01.009Z,98268.52
2023-03-17T00:58:34.006Z,98266.06
2023-03-17T01:01:02.455Z,98262.18
2023-03-17T01:03:31.160Z,98261.29
2023-03-17T01:06:00.543Z,98263.66
2023-03-17T01:08:30.148Z,98264.27
2023-03-17T01:10:59.495Z,98264.30
2023-03-17T01:13:27.656Z,98264.77
2023-03-17T01:15:57.209Z,98263.91
2023-03-17T01:18:25.881Z,98264.87
2023-03-17T01:20:54.782Z,98266.33
2023-03-17T01:23:23.121Z,98265.86
2023-03-17T01:25:51.188Z,98260.80
2023-03-17T01:28:20.420Z,98263.88
2023-03-17T01:30:49.269Z,98264.97
2023-03-17T01:33:19.085Z,98264.48
2023-03-17T01:35:47.317Z,98265.77
2023-03-17T01:38:15.571Z,98267.30
2023-03-17T01:40:50.615Z,98266.98
2023-03-17T01:43:23.096Z,98270.95
2023-03-17T01:46:16.130Z,98270.00
2023-03-17T01:49:07.742Z,98271.56
2023-03-17T01:51:58.904Z,98272.23
2023-03-17T01:54:47.981Z,98279.55
2023-03-17T01:57:18.683Z,98283.25
2023-03-17T01:59:53.514Z,98289.00
2023-03-17T02:02:31.046Z,98290.77
2023-03-17T02:05:00.180Z,98291.10
2023-03-17T02:07:29.152Z,98290.45
2023-03-17T02:09:59.385Z,98292.94
2023-03-17T02:12:29.191Z,98292.95
2023-03-17T02:14:58.500Z,98294.88
2023-03-17T02:17:28.852Z,98293.81
2023-03-17T02:19:57.028Z,98291.87
2023-03-17T02:22:25.457Z,98294.70
2023-03-17T02:24:57.126Z,98296.80
2023-03-17T02:27:35.983Z,98301.17
2023-03-17T02:30:06.989Z,98307.89
2023-03-17T02:32:37.447Z,98309.35
2023-03-17T02:35:07.318Z,98310.20
2023-03-17T02:37:39.164Z,98311.41
2023-03-17T02:40:11.445Z,98314.19
2023-03-17T02:42:41.229Z,98313.61
2023-03-17T02:45:11.662Z,98317.11
2023-03-17T02:47:41.531Z,98319.90
2023-03-17T02:50:17.896Z,98322.14
2023-03-17T02:52:48.785Z,98325.44
2023-03-17T02:55:18.864Z,98331.19
2023-03-17T02:57:46.895Z,98335.50
2023-03-17T03:00:15.584Z,98332.48
2023-03-17T03:02:43.733Z,98333.73
2023-03-17T03:05:11.894Z,98336.11
2023-03-17T03:07:39.891Z,98342.59
2023-03-17T03:10:09.399Z,98346.19
2023-03-17T03:12:37.518Z,98348.03
2023-03-17T03:15:07.016Z,98353.14
2023-03-17T03:17:35.824Z,98352.30
2023-03-17T03:20:05.324Z,98355.82
2023-03-17T03:22:33.499Z,98354.69
2023-03-17T03:25:01.521Z,98357.96
2023-03-17T03:27:30.161Z,98360.27
2023-03-17T03:29:58.466Z,98361.53
2023-03-17T03:32:27.719Z,98360.61
2023-03-17T03:34:55.797Z,98364.64
2023-03-17T03:37:23.824Z,98369.84
2023-03-17T03:39:52.252Z,98373.42
2023-03-17T03:42:20.498Z,98377.08
2023-03-17T03:44:48.412Z,98377.45
2023-03-17T03:47:16.370Z,98379.58
2023-03-17T03:49:44.461Z,98380.02
2023-03-17T03:52:12.373Z,98380.11
2023-03-17T03:54:40.617Z,98382.34
2023-03-17T03:57:08.697Z,98390.63
2023-03-17T03:59:36.854Z,98391.27
2023-03-17T04:02:05.090Z,98389.52
2023-03-17T04:04:33.475Z,98392.92
2023-03-17T04:07:02.047Z,98392.48
2023-03-17T04:09:30.367Z,98392.77
2023-03-17T04:11:58.464Z,98393.02
2023-03-17T04:14:26.673Z,98392.26
2023-03-17T04:16:54.847Z,98391.49
2023-03-17T04:19:24.083Z,98394.91
2023-03-17T04:21:54.350Z,98393.83
2023-03-17T04:24:22.757Z,98398.44
2023-03-17T04:26:52.053Z,98401.39
2023-03-17T04:29:20.729Z,98400.56
2023-03-17T04:31:48.808Z,98401.38
2023-03-17T04:34:20.031Z,98404.86
2023-03-17T04:36:48.450Z,98402.14
2023-03-17T04:39:17.121Z,98405.59
2023-03-17T04:41:46.529Z,98403.45
2023-03-17T04:44:14.680Z,98405.39
2023-03-17T04:46:42.685Z,98408.45
2023-03-17T04:49:10.720Z,98403.02
2023-03-17T04:51:38.845Z,98404.10
2023-03-17T04:54:07.403Z,98401.89
2023-03-17T04:56:36.194Z,98399.89
2023-03-17T04:59:06.394Z,98400.35
2023-03-17T05:01:34.666Z,98401.04
2023-03-17T05:04:02.647Z,98403.01
2023-03-17T05:06:31.725Z,98401.06
2023-03-17T05:08:59.772Z,98407.75
2023-03-17T05:11:27.781Z,98411.16
2023-03-17T05:13:57.085Z,98413.85
2023-03-17T05:16:25.357Z,98412.77
2023-03-17T05:18:53.404Z,98414.46
2023-03-17T05:21:21.958Z,98416.77
2023-03-17T05:23:51.569Z,98419.67
2023-03-17T05:26:21.284Z,98416.80
2023-03-17T05:28:49.287Z,98417.02
2023-03-17T05:31:19.253Z,98416.48
2023-03-17T05:33:49.260Z,98422.06
2023-03-17T05:36:18.526Z,98423.20
2023-03-17T05:38:46.776Z,98423.52
2023-03-17T05:41:16.680Z,98428.32
2023-03-17T05:43:44.951Z,98426.73
2023-03-17T05:46:13.821Z,98430.03
2023-03-17T05:48:42.420Z,98431.38
2023-03-17T05:51:11.513Z,98432.02
2023-03-17T05:53:41.868Z,98432.02
2023-03-17T05:56:12.896Z,98430.74
2023-03-17T05:58:41.347Z,98428.59
2023-03-17T06:01:10.405Z,98428.70
2023-03-17T06:03:38.796Z,98425.34
2023-03-17T06:06:07.103Z,98423.99
2023-03-17T06:08:35.402Z,98427.05
2023-03-17T06:11:05.887Z,98427.79
2023-03-17T06:13:34.132Z,98425.44
2023-03-17T06:16:03.663Z,98423.66
2023-03-17T06:18:31.753Z,98426.27
2023-03-17T06:21:00.097Z,98423.05
2023-03-17T06:23:28.483Z,98427.50
2023-03-17T06:25:57.724Z,98430.05
2023-03-17T06:28:26.056Z,98436.08
2023-03-17T06:30:56.725Z,98436.39
2023-03-17T06:33:26.224Z,98441.33
2023-03-17T06:35:54.868Z,98444.13
2023-03-17T06:38:23.447Z,98448.77
2023-03-17T06:40:51.878Z,98442.27
2023-03-17T06:43:20.170Z,98446.79
2023-03-17T06:45:48.166Z,98445.98
2023-03-17T06:48:16.307Z,98448.75
2023-03-17T06:50:47.348Z,98451.55
2023-03-17T06:53:15.503Z,98453.92
2023-03-17T06:55:43.738Z,98456.14
2023-03-17T06:58:13.300Z,98454.59
2023-03-17T07:00:42.062Z,98460.39
2023-03-17T07:03:11.393Z,98461.97
2023-03-17T07:05:39.495Z,98466.71
2023-03-17T07:08:08.446Z,98462.77
2023-03-17T07:10:37.577Z,98458.55
2023-03-17T07:13:07.766Z,98456.47
2023-03-17T07:15:37.505Z,98456.29
2023-03-17T07:18:07.157Z,98454.66
2023-03-17T07:20:35.851Z,98453.02
2023-03-17T07:23:05.616Z,98450.23
2023-03-17T07:25:37.022Z,98444.52
2023-03-17T07:28:05.237Z,98444.54
2023-03-17T07:30:34.163Z,98443.65
2023-03-17T07:33:02.249Z,98445.52
2023-03-17T07:35:32.618Z,98445.73
2023-03-17T07:38:01.299Z,98448.39
2023-03-17T07:40:29.854Z,98444.14
2023-03-17T07:43:02.732Z,98444.75
2023-03-17T07:45:32.736Z,98447.88
2023-03-17T07:48:01.357Z,98445.34
2023-03-17T07:50:29.869Z,98440.67
2023-03-17T07:52:57.987Z,98442.53
2023-03-17T07:55:27.328Z,98443.21
2023-03-17T07:57:55.727Z,98436.80
2023-03-17T08:00:24.519Z,98434.91
2023-03-17T08:03:08.866Z,98435.04
2023-03-17T08:05:37.791Z,98435.73
2023-03-17T08:08:10.773Z,98434.20
2023-03-17T08:10:39.761Z,98429.36
2023-03-17T08:13:10.386Z,98430.95
2023-03-17T08:15:40.023Z,98426.92
2023-03-17T08:18:09.890Z,98430.33
2023-03-17T08:20:37.914Z,98428.77
2023-03-17T08:23:06.343Z,98432.38
2023-03-17T08:25:34.470Z,98433.61
2023-03-17T08:28:03.616Z,98438.68
2023-03-17T08:30:33.744Z,98436.80
2023-03-17T08:33:05.231Z,98434.91
2023-03-17T08:35:34.641Z,98439.58
2023-03-17T08:38:04.545Z,98435.92
2023-03-17T08:40:33.576Z,98425.69
2023-03-17T08:43:05.863Z,98420.27
2023-03-17T08:45:34.636Z,98421.39
2023-03-17T08:48:04.382Z,98427.49
2023-03-17T08:50:32.860Z,98427.80
2023-03-17T08:53:01.679Z,98425.00
2023-03-17T08:55:30.044Z,98426.23
2023-03-17T08:57:58.196Z,98423.21
2023-03-17T09:00:29.123Z,98420.60
2023-03-17T09:02:58.517Z,98420.34
2023-03-17T09:05:27.610Z,98419.23
2023-03-17T09:07:55.656Z,98419.61
2023-03-17T09:10:26.907Z,98423.60
2023-03-17T09:13:01.281Z,98427.67
2023-03-17T09:15:30.138Z,98424.00
2023-03-17T09:17:58.813Z,98419.83
2023-03-17T09:20:27.614Z,98413.25
2023-03-17T09:22:56.623Z,98410.79
2023-03-17T09:25:25.053Z,98407.57
2023-03-17T09:27:53.362Z,98407.25
2023-03-17T09:30:23.504Z,98406.56
2023-03-17T09:32:53.055Z,98403.35
2023-03-17T09:35:22.401Z,98398.05
2023-03-17T09:37:52.229Z,98389.60
2023-03-17T09:40:33.941Z,98394.95
2023-03-17T09:43:48.815Z,98389.36
2023-03-17T09:48:56.686Z,98388.80
2023-03-17T09:51:27.787Z,98391.99
2023-03-17T09:54:00.011Z,98390.40
2023-03-17T09:56:32.369Z,98387.89
2023-03-17T09:59:07.902Z,98381.95
2023-03-17T10:01:43.556Z,98384.02
2023-03-17T10:04:12.158Z,98387.52
2023-03-17T10:06:43.773Z,98385.71
2023-03-17T10:09:45.157Z,98388.57
2023-03-17T10:12:39.012Z,98385.09
2023-03-17T10:15:23.516Z,98382.74
2023-03-17T10:17:52.503Z,98381.63
2023-03-17T10:20:37.220Z,98381.30
2023-03-17T10:23:10.806Z,98380.79
2023-03-17T10:25:39.605Z,98379.03
2023-03-17T10:28:23.886Z,98374.73
2023-03-17T10:30:55.789Z,98373.38
2023-03-17T10:33:24.177Z,98369.73
2023-03-17T10:35:52.566Z,98367.60
2023-03-17T10:38:22.601Z,98365.64
2023-03-17T10:41:13.636Z,98361.29
2023-03-17T10:43:45.928Z,98361.88
2023-03-17T10:46:24.449Z,98360.15
2023-03-17T10:49:10.995Z,98355.85
2023-03-17T10:51:40.845Z,98349.95
2023-03-17T10:54:11.738Z,98344.34
2023-03-17T10:56:42.993Z,98342.50
2023-03-17T10:59:38.818Z,98342.80
2023-03-17T11:02:22.029Z,98336.49
2023-03-17T11:05:13.754Z,98332.08
2023-03-17T11:07:43.185Z,98326.84
2023-03-17T11:10:23.441Z,98321.50
2023-03-17T11:13:03.938Z,98321.34
2023-03-17T11:15:41.678Z,98320.98
2023-03-17T11:18:43.143Z,98316.98
2023-03-17T11:21:36.731Z,98313.20
2023-03-17T11:24:33.845Z,98310.45
2023-03-17T11:27:26.880Z,98304.02
2023-03-17T11:30:35.411Z,98294.23
2023-03-17T11:33:41.148Z,98286.31
2023-03-17T11:36:20.887Z,98289.56
2023-03-17T11:39:00.272Z,98285.77
2023-03-17T11:41:46.502Z,98281.53
2023-03-17T11:44:38.812Z,98282.92
2023-03-17T11:47:14.246Z,98279.68
2023-03-17T11:49:45.826Z,98272.77
2023-03-17T11:52:26.882Z,98272.05
2023-03-17T11:55:18.206Z,98270.40
2023-03-17T11:58:05.692Z,98268.64
2023-03-17T12:00:43.831Z,98267.76
2023-03-17T12:03:28.252Z,98259.52
2023-03-17T12:06:00.748Z,98259.40
2023-03-17T12:08:35.571Z,98252.96
2023-03-17T12:11:07.067Z,98254.27
2023-03-17T12:13:48.827Z,98249.65
2023-03-17T12:16:23.454Z,98243.05
2023-03-17T12:18:56.665Z,98240.52
2023-03-17T12:21:33.032Z,98247.99
2023-03-17T12:24:10.229Z,98254.30
2023-03-17T12:26:57.756Z,98247.58
2023-03-17T12:29:50.970Z,98245.48
2023-03-17T12:32:37.457Z,98238.62
2023-03-17T12:35:26.356Z,98230.80
2023-03-17T12:38:01.404Z,98232.88
2023-03-17T12:40:32.809Z,98235.59
2023-03-17T12:43:13.121Z,98240.13
2023-03-17T12:46:19.515Z,98231.77
2023-03-17T12:49:10.221Z,98218.73
2023-03-17T12:51:52.234Z,98216.47
2023-03-17T12:54:27.155Z,98210.43
2023-03-17T12:57:06.652Z,98206.70
2023-03-17T12:59:36.673Z,98205.01
2023-03-17T13:02:45.394Z,98202.05
2023-03-17T13:05:17.173Z,98201.02
2023-03-17T13:07:55.768Z,98199.10
2023-03-17T13:10:46.708Z,98201.34
2023-03-17T13:13:36.306Z,98201.31
2023-03-17T13:16:06.301Z,98196.36
2023-03-17T13:18:34.480Z,98190.59
2023-03-17T13:21:02.901Z,98187.03
2023-03-17T13:24:29.734Z,98184.49
2023-03-17T13:27:02.350Z,98177.79
2023-03-17T13:29:33.737Z,98176.45
2023-03-17T13:32:28.214Z,98179.63
2023-03-17T13:35:18.105Z,98173.97
2023-03-17T13:38:21.187Z,98172.79
2023-03-17T13:40:57.309Z,98167.95
2023-03-17T13:43:46.648Z,98167.44
2023-03-17T13:46:34.169Z,98165.58
2023-03-17T13:49:16.553Z,98160.27
2023-03-17T13:52:12.509Z,98165.74
2023-03-17T13:54:47.266Z,98164.59
2023-03-17T13:57:29.343Z,98158.12
2023-03-17T14:00:22.000Z,98149.40
2023-03-17T14:03:02.327Z,98152.76
2023-03-17T14:05:36.515Z,98152.17
2023-03-17T14:08:11.702Z,98156.70
2023-03-17T14:10:40.487Z,98154.30
2023-03-17T14:13:13.011Z,98145.86
2023-03-17T14:16:09.477Z,98148.52
2023-03-17T14:18:44.384Z,98145.66
2023-03-17T14:21:25.598Z,98148.98
2023-03-17T14:23:57.027Z,98149.45
2023-03-17T14:26:32.169Z,98143.61
2023-03-17T14:29:02.818Z,98143.74
2023-03-17T14:31:31.735Z,98144.69
2023-03-17T14:34:01.358Z,98146.41
2023-03-17T14:36:33.838Z,98146.09
2023-03-17T14:39:02.453Z,98147.59
2023-03-17T14:41:35.375Z,98147.65
2023-03-17T14:44:04.452Z,98147.42
2023-03-17T14:46:41.206Z,98153.90
2023-03-17T14:49:22.238Z,98151.20
2023-03-17T14:51:53.848Z,98150.77
2023-03-17T14:54:27.118Z,98148.04
2023-03-17T14:57:02.161Z,98150.85
2023-03-17T14:59:38.710Z,98147.71
2023-03-17T15:02:18.325Z,98146.08
2023-03-17T15:05:06.737Z,98144.05
2023-03-17T15:07:42.290Z,98142.66
2023-03-17T15:10:22.264Z,98142.39
2023-03-17T15:13:00.883Z,98142.73
2023-03-17T15:15:33.289Z,98141.21
2023-03-17T15:18:12.222Z,98141.35
2023-03-17T15:20:44.361Z,98140.62
2023-03-17T15:23:17.098Z,98137.85
2023-03-17T15:25:56.353Z,98138.25
2023-03-17T15:28:35.574Z,98138.95
2023-03-17T15:31:14.917Z,98142.77
2023-03-17T15:33:43.546Z,98134.80
2023-03-17T15:36:31.731Z,98133.83
2023-03-17T15:39:04.420Z,98132.70
2023-03-17T15:41:32.621Z,98128.36
2023-03-17T15:44:04.023Z,98132.48
2023-03-17T15:46:33.730Z,98131.83
2023-03-17T15:49:02.174Z,98134.86
2023-03-17T15:51:30.532Z,98134.27
2023-03-17T15:53:59.201Z,98133.30
2023-03-17T15:56:28.993Z,98132.89
2023-03-17T15:58:57.081Z,98133.56
2023-03-17T16:01:27.840Z,98133.42
2023-03-17T16:03:58.066Z,98131.33
2023-03-17T16:06:32.277Z,98131.92
2023-03-17T16:09:01.601Z,98131.36
2023-03-17T16:11:31.414Z,98137.50
2023-03-17T16:14:01.371Z,98138.50
2023-03-17T16:16:37.377Z,98135.12
2023-03-17T16:19:09.434Z,98139.34
2023-03-17T16:21:38.227Z,98143.81
2023-03-17T16:24:06.767Z,98148.62
2023-03-17T16:26:34.878Z,98150.46
2023-03-17T16:29:12.305Z,98156.82
2023-03-17T16:31:41.119Z,98153.67
2023-03-17T16:34:21.128Z,98155.30
2023-03-17T16:36:51.215Z,98159.63
2023-03-17T16:39:22.554Z,98158.90
2023-03-17T16:41:50.808Z,98158.48
2023-03-17T16:44:21.955Z,98161.75
2023-03-17T16:46:50.978Z,98164.92
2023-03-17T16:49:23.734Z,98163.02
2023-03-17T16:51:51.812Z,98161.07
2023-03-17T16:54:21.381Z,98163.48
2023-03-17T16:56:49.768Z,98165.45
2023-03-17T16:59:21.318Z,98164.60
2023-03-17T17:01:49.851Z,98165.59
2023-03-17T17:04:18.343Z,98164.60
2023-03-17T17:07:05.112Z,98171.58
2023-03-17T17:09:33.125Z,98172.09
2023-03-17T17:12:01.875Z,98170.05
2023-03-17T17:14:30.307Z,98174.62
2023-03-17T17:16:58.531Z,98175.48
2023-03-17T17:19:27.167Z,98174.82
2023-03-17T17:21:55.322Z,98178.13
2023-03-17T17:24:23.517Z,98179.05
2023-03-17T17:26:51.719Z,98179.06
2023-03-17T17:29:19.794Z,98175.36
2023-03-17T17:31:56.970Z,98185.90
2023-03-17T17:34:25.606Z,98184.43
2023-03-17T17:36:54.617Z,98187.79
2023-03-17T17:39:23.185Z,98184.40
2023-03-17T17:41:53.667Z,98188.63
2023-03-17T17:44:22.941Z,98188.40
2023-03-17T17:46:52.708Z,98186.61
2023-03-17T17:49:21.283Z,98185.08
2023-03-17T17:51:49.597Z,98182.54
2023-03-17T17:54:19.501Z,98181.64
2023-03-17T17:56:48.073Z,98180.25
2023-03-17T17:59:16.774Z,98179.88
2023-03-17T18:01:44.889Z,98188.08
2023-03-17T18:04:13.079Z,98189.14
2023-03-17T18:06:41.859Z,98190.35
2023-03-17T18:09:10.627Z,98190.73
2023-03-17T18:11:41.018Z,98188.63
2023-03-17T18:14:09.853Z,98190.34
2023-03-17T18:16:38.678Z,98186.23
2023-03-17T18:19:11.363Z,98187.84
2023-03-17T18:21:40.982Z,98191.88
2023-03-17T18:24:09.462Z,98193.19
2023-03-17T18:26:38.966Z,98196.73
2023-03-17T18:29:09.142Z,98195.79
2023-03-17T18:31:44.538Z,98193.98
2023-03-17T18:34:21.933Z,98194.47
2023-03-17T18:36:52.078Z,98195.16
2023-03-17T18:39:20.278Z,98198.21
2023-03-17T18:41:49.262Z,98197.76
2023-03-17T18:44:19.855Z,98198.15
2023-03-17T18:46:48.649Z,98196.31
2023-03-17T18:49:16.888Z,98192.66
2023-03-17T18:51:45.116Z,98196.93
2023-03-17T18:54:13.796Z,98196.79
2023-03-17T18:56:42.310Z,98199.54
2023-03-17T18:59:11.944Z,98193.05
2023-03-17T19:01:40.643Z,98195.80
2023-03-17T19:04:08.928Z,98201.88
2023-03-17T19:06:39.702Z,98204.63
2023-03-17T19:09:09.601Z,98208.61
2023-03-17T19:11:42.131Z,98212.30
2023-03-17T19:14:11.987Z,98215.93
2023-03-17T19:16:41.542Z,98219.34
2023-03-17T19:19:12.657Z,98226.90
2023-03-17T19:21:41.212Z,98229.23
2023-03-17T19:24:11.890Z,98228.43
2023-03-17T19:26:40.851Z,98224.55
2023-03-17T19:29:10.201Z,98218.23
2023-03-17T19:31:41.695Z,98221.48
2023-03-17T19:34:13.139Z,98218.84
2023-03-17T19:36:45.650Z,98220.98
2023-03-17T19:39:16.718Z,98221.86
2023-03-17T19:41:44.965Z,98219.39
2023-03-17T19:44:13.422Z,98219.02
2023-03-17T19:46:42.244Z,98216.58
2023-03-17T19:49:11.801Z,98213.60
2023-03-17T19:51:41.979Z,98212.73
2023-03-17T19:54:12.496Z,98215.35
2023-03-17T19:56:40.696Z,98214.98
2023-03-17T19:59:09.166Z,98218.30
2023-03-17T20:01:38.380Z,98213.95
2023-03-17T20:04:12.008Z,98215.56
2023-03-17T20:06:43.300Z,98222.98
2023-03-17T20:09:12.334Z,98219.67
2023-03-17T20:11:41.599Z,98222.50
2023-03-17T20:14:09.750Z,98226.79
2023-03-17T20:16:39.283Z,98221.30
2023-03-17T20:19:08.665Z,98224.70
2023-03-17T20:21:38.340Z,98225.73
2023-03-17T20:24:07.101Z,98223.70
2023-03-17T20:26:35.618Z,98226.63
2023-03-17T20:29:03.805Z,98223.97
2023-03-17T20:31:32.307Z,98222.08
2023-03-17T20:34:00.466Z,98228.27
2023-03-17T20:36:28.531Z,98227.73
2023-03-17T20:38:56.915Z,98226.17
2023-03-17T20:41:25.289Z,98228.10
2023-03-17T20:43:53.538Z,98227.80
2023-03-17T20:46:24.781Z,98226.02
2023-03-17T20:48:59.134Z,98227.01
2023-03-17T20:51:28.527Z,98229.80
2023-03-17T20:53:58.532Z,98224.99
2023-03-17T20:56:29.963Z,98221.03
2023-03-17T20:58:59.110Z,98219.02
2023-03-17T21:01:27.599Z,98219.61
2023-03-17T21:03:56.084Z,98214.65
2023-03-17T21:06:26.218Z,98217.33
2023-03-17T21:08:56.698Z,98216.41
2023-03-17T21:11:28.295Z,98213.06
2023-03-17T21:13:57.964Z,98212.13
2023-03-17T21:16:29.944Z,98204.33
2023-03-17T21:18:59.182Z,98205.34
2023-03-17T21:21:28.012Z,98201.55
2023-03-17T21:23:57.131Z,98203.27
2023-03-17T21:26:25.592Z,98200.90
2023-03-17T21:28:54.787Z,98202.06
2023-03-17T21:31:26.368Z,98199.52
2023-03-17T21:33:55.038Z,98198.05
2023-03-17T21:36:23.527Z,98199.48
2023-03-17T21:38:51.810Z,98201.14
2023-03-17T21:41:27.277Z,98201.31
2023-03-17T21:43:55.508Z,98203.42
2023-03-17T21:46:25.660Z,98203.42
2023-03-17T21:48:54.382Z,98205.89
2023-03-17T21:51:23.782Z,98203.92
2023-03-17T21:53:53.970Z,98204.66
2023-03-17T21:56:22.420Z,98203.39
2023-03-17T21:58:50.933Z,98200.58
2023-03-17T22:01:21.841Z,98205.64
2023-03-17T22:03:52.226Z,98204.55
2023-03-17T22:06:21.230Z,98206.73
2023-03-17T22:08:51.963Z,98207.31
2023-03-17T22:11:20.938Z,98209.39
2023-03-17T22:13:49.133Z,98208.60
2023-03-17T22:16:19.350Z,98208.99
2023-03-17T22:18:47.583Z,98205.75
2023-03-17T22:21:15.728Z,98205.18
2023-03-17T22:23:46.333Z,98206.39
2023-03-17T22:26:17.563Z,98209.98
2023-03-17T22:28:47.857Z,98210.34
2023-03-17T22:31:20.108Z,98214.38
2023-03-17T22:33:50.543Z,98217.69
2023-03-17T22:36:19.156Z,98220.25
2023-03-17T22:38:47.878Z,98222.17
2023-03-17T22:41:19.488Z,98219.67
2023-03-17T22:43:48.247Z,98224.54
2023-03-17T22:46:19.160Z,98236.89
2023-03-17T22:48:48.179Z,98250.77
2023-03-17T22:51:21.203Z,98254.06
2023-03-17T22:53:51.590Z,98260.85
2023-03-17T22:56:21.729Z,98268.25
2023-03-17T22:58:49.931Z,98264.98
2023-03-17T23:01:19.425Z,98258.77
2023-03-17T23:03:47.802Z,98268.15
2023-03-17T23:06:16.416Z,98272.66
2023-03-17T23:08:45.967Z,98274.55
2023-03-17T23:11:21.398Z,98271.31
2023-03-17T23:13:50.705Z,98264.95
2023-03-17T23:16:20.322Z,98264.59
2023-03-17T23:18:58.296Z,98263.66
2023-03-17T23:21:33.504Z,98260.61
2023-03-17T23:24:04.069Z,98261.38
2023-03-17T23:26:35.128Z,98258.76
2023-03-17T23:29:05.828Z,98257.69
2023-03-17T23:31:36.953Z,98257.67
2023-03-17T23:34:09.524Z,98259.06
2023-03-17T23:36:40.371Z,98260.55
2023-03-17T23:39:09.157Z,98261.85
2023-03-17T23:41:37.894Z,98263.83
2023-03-17T23:44:06.610Z,98261.53
2023-03-17T23:46:35.025Z,98259.52
2023-03-17T23:49:04.455Z,98257.10
2023-03-17T23:51:33.457Z,98256.84
2023-03-17T23:54:02.683Z,98253.67
2023-03-17T23:56:32.364Z,98250.87
2023-03-17T23:59:01.654Z,98252.04
